Time;durP1;ratioP1;P1;durP2;ratioP2;P2;SDS_P1;SDS_P2;PMS_P1;PMS_P2;Temp;Humidity;BMP_temperature;BMP_pressure;BME280_temperature;BME280_humidity;BME280_pressure;Samples;Min_cycle;Max_cycle;Signal;HPM_P1;HPM_P2
2022/06/29 00:00:36;;;;;;;23.13;18.33;;;;;;;;;;5073384;28;20944;-69
2022/06/29 00:03:04;;;;;;;21.70;17.70;;;;;;;;;;5073107;28;20454;-69
2022/06/29 00:05:31;;;;;;;22.93;18.60;;;;;;;;;;5072882;28;20507;-69
2022/06/29 00:07:58;;;;;;;24.67;17.87;;;;;;;;;;5073277;28;20500;-69
2022/06/29 00:10:25;;;;;;;26.17;19.23;;;;;;;;;;5072879;28;20490;-69
2022/06/29 00:12:54;;;;;;;28.60;20.67;;;;;;;;;;5073134;28;20452;-69
2022/06/29 00:15:22;;;;;;;91.90;20.90;;;;;;;;;;5072744;28;20456;-69
2022/06/29 00:17:50;;;;;;;45.47;20.00;;;;;;;;;;5073122;28;20454;-69
2022/06/29 00:20:17;;;;;;;28.17;19.77;;;;;;;;;;5072896;28;20444;-69
2022/06/29 00:22:44;;;;;;;22.33;18.53;;;;;;;;;;5072874;28;20471;-69
2022/06/29 00:25:12;;;;;;;23.30;16.80;;;;;;;;;;5072522;28;20992;-69
2022/06/29 00:27:39;;;;;;;19.20;16.03;;;;;;;;;;5073028;28;20454;-69
2022/06/29 00:30:09;;;;;;;16.70;13.97;;;;;;;;;;5072891;28;20871;-69
2022/06/29 00:32:36;;;;;;;15.67;13.93;;;;;;;;;;5073088;28;20913;-69
2022/06/29 00:35:03;;;;;;;19.30;15.70;;;;;;;;;;5072558;28;20451;-69
2022/06/29 00:37:31;;;;;;;19.40;15.40;;;;;;;;;;5072874;28;20456;-69
2022/06/29 00:39:58;;;;;;;28.60;22.00;;;;;;;;;;5072903;28;20448;-69
2022/06/29 00:42:25;;;;;;;40.60;27.20;;;;;;;;;;5072670;28;20969;-69
2022/06/29 00:44:52;;;;;;;52.77;33.30;;;;;;;;;;5072612;28;20452;-69
2022/06/29 00:47:22;;;;;;;51.50;33.30;;;;;;;;;;5072629;28;20463;-69
2022/06/29 00:49:49;;;;;;;53.17;32.00;;;;;;;;;;5075513;28;20523;-69
2022/06/29 00:52:18;;;;;;;36.50;25.30;;;;;;;;;;5076458;28;20467;-69
2022/06/29 00:54:46;;;;;;;50.87;25.83;;;;;;;;;;5076030;28;20459;-69
2022/06/29 00:57:15;;;;;;;36.20;22.00;;;;;;;;;;5076540;28;20525;-69
2022/06/29 00:59:44;;;;;;;33.50;23.93;;;;;;;;;;5076720;28;20830;-70
2022/06/29 01:02:12;;;;;;;30.00;20.60;;;;;;;;;;5076656;28;20509;-69
2022/06/29 01:04:40;;;;;;;23.43;16.97;;;;;;;;;;5076528;28;20454;-69
2022/06/29 01:07:08;;;;;;;21.60;16.17;;;;;;;;;;5076352;28;20451;-69
2022/06/29 01:09:35;;;;;;;20.90;16.17;;;;;;;;;;5076325;28;20448;-69
2022/06/29 01:12:02;;;;;;;19.77;14.40;;;;;;;;;;5076379;28;20840;-69
2022/06/29 01:14:30;;;;;;;18.73;14.43;;;;;;;;;;5076054;28;20458;-69
2022/06/29 01:16:57;;;;;;;19.90;13.93;;;;;;;;;;5076306;28;20450;-69
2022/06/29 01:19:24;;;;;;;18.90;14.07;;;;;;;;;;5076112;28;20454;-69
2022/06/29 01:21:53;;;;;;;18.57;13.00;;;;;;;;;;5076169;28;20471;-69
2022/06/29 01:24:22;;;;;;;13.10;11.73;;;;;;;;;;5075687;28;20839;-69
2022/06/29 01:26:49;;;;;;;15.80;13.47;;;;;;;;;;5076201;28;20452;-69
2022/06/29 01:29:17;;;;;;;16.13;12.50;;;;;;;;;;5075896;28;20908;-69
2022/06/29 01:31:44;;;;;;;16.03;12.33;;;;;;;;;;5075753;28;20847;-69
2022/06/29 01:34:11;;;;;;;11.57;10.40;;;;;;;;;;5075589;28;20953;-69
2022/06/29 01:36:39;;;;;;;14.30;12.63;;;;;;;;;;5075898;28;20447;-69
2022/06/29 01:39:06;;;;;;;12.80;11.43;;;;;;;;;;5075764;28;20455;-69
2022/06/29 01:41:34;;;;;;;15.20;10.93;;;;;;;;;;5075819;28;20460;-69
2022/06/29 01:44:01;;;;;;;13.40;11.27;;;;;;;;;;5075558;28;20545;-69
2022/06/29 01:46:29;;;;;;;15.43;11.07;;;;;;;;;;5075536;28;20454;-69
2022/06/29 01:48:56;;;;;;;19.40;13.10;;;;;;;;;;5075832;28;20470;-69
2022/06/29 01:51:23;;;;;;;15.67;11.80;;;;;;;;;;5075512;28;21022;-69
2022/06/29 01:53:50;;;;;;;15.10;12.13;;;;;;;;;;5074965;28;20455;-69
2022/06/29 01:56:17;;;;;;;15.43;12.60;;;;;;;;;;5075498;28;20447;-69
2022/06/29 01:58:47;;;;;;;15.67;12.13;;;;;;;;;;5075588;28;20538;-69
2022/06/29 02:01:15;;;;;;;17.07;13.07;;;;;;;;;;5075018;28;20491;-69
2022/06/29 02:03:42;;;;;;;17.30;13.40;;;;;;;;;;5075289;28;20452;-69
2022/06/29 02:06:09;;;;;;;14.60;12.30;;;;;;;;;;5075371;28;20458;-69
2022/06/29 02:08:37;;;;;;;15.03;12.60;;;;;;;;;;5075394;28;20467;-69
2022/06/29 02:11:04;;;;;;;29.20;12.30;;;;;;;;;;5075103;28;21015;-69
2022/06/29 02:13:31;;;;;;;15.43;10.60;;;;;;;;;;5075145;28;20459;-69
2022/06/29 02:16:00;;;;;;;15.50;12.07;;;;;;;;;;5075196;28;20451;-69
2022/06/29 02:18:27;;;;;;;18.93;12.37;;;;;;;;;;5075118;28;20487;-69
2022/06/29 02:20:54;;;;;;;19.17;13.93;;;;;;;;;;5075048;28;20475;-69
2022/06/29 02:23:21;;;;;;;18.10;13.00;;;;;;;;;;5074834;28;20455;-69
2022/06/29 02:25:49;;;;;;;19.03;11.87;;;;;;;;;;5074771;28;20550;-69
2022/06/29 02:28:16;;;;;;;22.40;13.43;;;;;;;;;;5074801;28;20459;-69
2022/06/29 02:36:14;;;;;;;13.67;12.00;;;;;;;;;;5074688;28;20430;-69
2022/06/29 02:38:41;;;;;;;19.63;14.37;;;;;;;;;;5074960;28;20452;-69
2022/06/29 02:41:08;;;;;;;16.77;13.67;;;;;;;;;;5074586;28;20468;-69
2022/06/29 02:43:35;;;;;;;15.50;12.40;;;;;;;;;;5074645;28;20929;-69
2022/06/29 02:46:02;;;;;;;21.20;13.37;;;;;;;;;;5074573;28;20455;-69
2022/06/29 02:48:32;;;;;;;16.50;12.23;;;;;;;;;;5074441;28;20455;-69
2022/06/29 02:50:59;;;;;;;20.70;11.77;;;;;;;;;;5074351;28;20550;-69
2022/06/29 02:53:26;;;;;;;15.03;12.17;;;;;;;;;;5074027;28;20443;-69
2022/06/29 02:55:53;;;;;;;14.43;12.10;;;;;;;;;;5074635;28;20835;-69
2022/06/29 02:58:21;;;;;;;20.47;12.70;;;;;;;;;;5074289;28;20454;-69
2022/06/29 03:00:48;;;;;;;15.97;11.83;;;;;;;;;;5074263;28;20478;-69
2022/06/29 03:03:15;;;;;;;19.47;12.70;;;;;;;;;;5074170;28;20447;-69
2022/06/29 03:05:43;;;;;;;14.10;11.20;;;;;;;;;;5073824;28;20458;-69
2022/06/29 03:08:10;;;;;;;12.87;11.00;;;;;;;;;;5074297;28;20904;-69
2022/06/29 03:10:38;;;;;;;19.73;12.23;;;;;;;;;;5073679;28;20493;-69
2022/06/29 03:13:05;;;;;;;21.27;11.00;;;;;;;;;;5073698;28;20463;-69
2022/06/29 03:15:32;;;;;;;12.83;11.07;;;;;;;;;;5073835;28;20451;-69
2022/06/29 03:17:59;;;;;;;11.47;10.30;;;;;;;;;;5073957;28;20826;-69
2022/06/29 03:20:28;;;;;;;12.80;9.83;;;;;;;;;;5073767;28;20459;-69
2022/06/29 03:22:56;;;;;;;12.87;10.87;;;;;;;;;;5073853;28;20491;-69
2022/06/29 03:25:23;;;;;;;14.87;11.80;;;;;;;;;;5073356;28;20463;-69
2022/06/29 03:27:50;;;;;;;19.10;13.77;;;;;;;;;;5073801;28;20458;-69
2022/06/29 03:30:18;;;;;;;13.40;10.23;;;;;;;;;;5073657;28;20467;-69
2022/06/29 03:32:45;;;;;;;11.43;10.23;;;;;;;;;;5073632;28;20480;-69
2022/06/29 03:35:12;;;;;;;17.77;12.20;;;;;;;;;;5073335;28;20964;-69
2022/06/29 03:37:39;;;;;;;17.90;10.90;;;;;;;;;;5073542;28;20448;-69
2022/06/29 03:40:09;;;;;;;15.30;10.53;;;;;;;;;;5073665;28;20827;-69
2022/06/29 03:42:36;;;;;;;15.53;11.10;;;;;;;;;;5073519;28;20984;-69
2022/06/29 03:45:03;;;;;;;15.13;9.80;;;;;;;;;;5073225;28;20456;-69
2022/06/29 03:47:30;;;;;;;12.57;9.70;;;;;;;;;;5073314;28;20455;-69
2022/06/29 03:49:57;;;;;;;30.83;24.80;;;;;;;;;;5073535;28;20929;-69
2022/06/29 03:52:24;;;;;;;14.77;10.73;;;;;;;;;;5073184;28;20502;-69
2022/06/29 03:54:51;;;;;;;15.40;11.57;;;;;;;;;;5073152;28;20964;-69
2022/06/29 03:57:20;;;;;;;16.97;11.73;;;;;;;;;;5073371;28;20448;-69
2022/06/29 03:59:47;;;;;;;13.90;10.37;;;;;;;;;;5073320;28;20825;-69
2022/06/29 04:02:14;;;;;;;14.50;10.50;;;;;;;;;;5073049;28;20471;-69
2022/06/29 04:04:41;;;;;;;17.53;11.23;;;;;;;;;;5073138;28;20827;-69
2022/06/29 04:07:08;;;;;;;14.37;11.07;;;;;;;;;;5073191;28;20455;-69
2022/06/29 04:09:35;;;;;;;16.90;11.63;;;;;;;;;;5073027;28;20456;-69
2022/06/29 04:12:02;;;;;;;13.20;11.00;;;;;;;;;;5072927;28;20581;-69
2022/06/29 04:14:31;;;;;;;12.60;11.20;;;;;;;;;;5072808;28;20460;-69
2022/06/29 04:16:59;;;;;;;15.77;12.20;;;;;;;;;;5073325;28;20940;-69
2022/06/29 04:19:26;;;;;;;14.50;11.33;;;;;;;;;;5072882;28;20455;-70
2022/06/29 04:21:54;;;;;;;17.93;11.27;;;;;;;;;;5073104;28;20460;-69
2022/06/29 04:24:21;;;;;;;15.47;12.53;;;;;;;;;;5072476;28;20466;-69
2022/06/29 04:26:48;;;;;;;16.70;12.67;;;;;;;;;;5072904;28;20448;-69
2022/06/29 04:29:15;;;;;;;14.33;11.73;;;;;;;;;;5072913;28;20455;-69
2022/06/29 04:31:44;;;;;;;21.13;12.50;;;;;;;;;;5072833;28;20491;-69
2022/06/29 04:34:11;;;;;;;21.30;12.93;;;;;;;;;;5072657;28;20804;-69
2022/06/29 04:36:38;;;;;;;20.13;12.27;;;;;;;;;;5072848;28;20478;-69
2022/06/29 04:39:05;;;;;;;13.60;12.20;;;;;;;;;;5072946;28;20811;-69
2022/06/29 04:41:32;;;;;;;19.27;13.57;;;;;;;;;;5072562;28;20498;-69
2022/06/29 04:43:59;;;;;;;16.53;13.10;;;;;;;;;;5072563;28;20447;-69
2022/06/29 04:46:27;;;;;;;20.33;13.43;;;;;;;;;;5072740;28;20458;-69
2022/06/29 04:48:56;;;;;;;18.63;14.23;;;;;;;;;;5073329;28;20455;-69
2022/06/29 04:51:24;;;;;;;17.47;12.73;;;;;;;;;;5072693;28;20487;-69
2022/06/29 04:53:54;;;;;;;18.53;14.27;;;;;;;;;;5071964;28;20448;-70
2022/06/29 04:56:22;;;;;;;18.93;12.83;;;;;;;;;;5072650;28;20462;-69
2022/06/29 04:58:50;;;;;;;19.63;14.50;;;;;;;;;;5072759;28;20478;-69
2022/06/29 05:01:18;;;;;;;24.20;14.20;;;;;;;;;;5072442;28;20467;-69
2022/06/29 05:03:45;;;;;;;17.70;13.37;;;;;;;;;;5072378;28;20510;-69
2022/06/29 05:06:14;;;;;;;16.00;12.90;;;;;;;;;;5072507;28;20447;-69
2022/06/29 05:08:41;;;;;;;16.47;13.70;;;;;;;;;;5072591;28;20454;-69
2022/06/29 05:11:08;;;;;;;17.73;15.60;;;;;;;;;;5072292;28;20849;-69
2022/06/29 05:13:35;;;;;;;21.20;14.20;;;;;;;;;;5072441;28;20455;-70
2022/06/29 05:16:02;;;;;;;18.33;13.87;;;;;;;;;;5072617;28;20475;-70
2022/06/29 05:18:29;;;;;;;17.27;13.57;;;;;;;;;;5072540;28;20459;-69
2022/06/29 05:20:57;;;;;;;16.03;14.10;;;;;;;;;;5072539;28;20472;-69
2022/06/29 05:23:26;;;;;;;13.43;12.07;;;;;;;;;;5072147;28;20455;-69
2022/06/29 05:25:53;;;;;;;17.80;13.17;;;;;;;;;;5072453;28;20941;-69
2022/06/29 05:28:20;;;;;;;16.33;13.70;;;;;;;;;;5072413;28;20960;-69
2022/06/29 05:30:48;;;;;;;14.90;12.83;;;;;;;;;;5072405;28;20472;-69
2022/06/29 05:33:15;;;;;;;15.13;12.67;;;;;;;;;;5072246;28;20496;-69
2022/06/29 05:35:42;;;;;;;16.00;13.17;;;;;;;;;;5074432;28;20956;-69
2022/06/29 05:38:09;;;;;;;18.03;14.37;;;;;;;;;;5075770;28;20949;-69
2022/06/29 05:40:38;;;;;;;19.10;12.60;;;;;;;;;;5075939;28;20447;-69
2022/06/29 05:43:05;;;;;;;24.43;15.57;;;;;;;;;;5085168;28;20442;-69
2022/06/29 05:45:32;;;;;;;17.70;13.00;;;;;;;;;;5095003;28;20486;-69
2022/06/29 05:47:59;;;;;;;19.60;12.80;;;;;;;;;;5095634;28;20811;-69
2022/06/29 05:50:26;;;;;;;19.30;12.77;;;;;;;;;;5095605;28;20455;-69
2022/06/29 05:52:53;;;;;;;19.60;14.30;;;;;;;;;;5095381;28;20509;-69
2022/06/29 05:55:21;;;;;;;18.10;14.10;;;;;;;;;;5095311;28;20442;-69
2022/06/29 05:57:49;;;;;;;16.13;14.53;;;;;;;;;;5080463;28;20927;-69
2022/06/29 06:00:16;;;;;;;18.57;14.60;;;;;;;;;;5093493;28;20454;-69
2022/06/29 06:02:43;;;;;;;16.77;12.90;;;;;;;;;;5093919;28;20471;-69
2022/06/29 06:05:10;;;;;;;20.40;12.67;;;;;;;;;;5093555;28;20446;-69
2022/06/29 06:07:37;;;;;;;20.33;16.77;;;;;;;;;;5094230;28;20862;-69
2022/06/29 06:10:05;;;;;;;19.90;15.93;;;;;;;;;;5093212;28;20466;-69
2022/06/29 06:12:33;;;;;;;16.30;13.37;;;;;;;;;;5093786;28;20486;-69
2022/06/29 06:15:01;;;;;;;15.13;12.00;;;;;;;;;;5093573;28;20455;-69
2022/06/29 06:17:28;;;;;;;14.00;11.97;;;;;;;;;;5093691;28;20459;-69
2022/06/29 06:19:56;;;;;;;14.90;12.27;;;;;;;;;;5093981;28;20518;-69
2022/06/29 06:22:23;;;;;;;15.50;12.37;;;;;;;;;;5093510;28;20514;-69
2022/06/29 06:24:51;;;;;;;15.90;13.70;;;;;;;;;;5093423;28;20470;-69
2022/06/29 06:27:20;;;;;;;17.23;13.63;;;;;;;;;;5093227;28;20451;-69
2022/06/29 06:29:47;;;;;;;16.60;13.10;;;;;;;;;;5093718;28;20447;-69
2022/06/29 06:32:16;;;;;;;21.47;12.50;;;;;;;;;;5093060;28;20494;-69
2022/06/29 06:34:43;;;;;;;14.17;12.77;;;;;;;;;;5093363;28;20450;-69
2022/06/29 06:37:10;;;;;;;13.17;11.40;;;;;;;;;;5093267;28;20828;-70
2022/06/29 06:39:37;;;;;;;14.40;12.43;;;;;;;;;;5093610;28;20453;-69
2022/06/29 06:42:04;;;;;;;17.93;12.83;;;;;;;;;;5093240;28;20462;-69
2022/06/29 06:44:31;;;;;;;12.63;10.40;;;;;;;;;;5093000;28;20484;-69
2022/06/29 06:46:58;;;;;;;25.23;18.73;;;;;;;;;;5093582;28;20793;-69
2022/06/29 06:49:27;;;;;;;13.50;12.10;;;;;;;;;;5093042;28;20457;-69
2022/06/29 06:51:54;;;;;;;14.50;10.40;;;;;;;;;;5092969;28;20487;-69
2022/06/29 06:54:21;;;;;;;13.67;10.57;;;;;;;;;;5092397;28;20455;-69
2022/06/29 06:56:48;;;;;;;11.60;9.80;;;;;;;;;;5091914;28;20454;-69
2022/06/29 06:59:15;;;;;;;10.10;9.20;;;;;;;;;;5091803;28;20810;-69
2022/06/29 07:01:42;;;;;;;13.23;10.07;;;;;;;;;;5092238;28;20475;-69
2022/06/29 07:04:09;;;;;;;11.87;8.40;;;;;;;;;;5092830;28;20482;-69
2022/06/29 07:06:38;;;;;;;11.27;9.30;;;;;;;;;;5092821;28;20451;-69
2022/06/29 07:09:05;;;;;;;21.43;10.80;;;;;;;;;;5093008;28;20446;-69
2022/06/29 07:11:32;;;;;;;14.80;8.57;;;;;;;;;;5092612;28;20490;-69
2022/06/29 07:13:59;;;;;;;9.50;8.17;;;;;;;;;;5092763;28;20454;-69
2022/06/29 07:16:26;;;;;;;9.73;8.30;;;;;;;;;;5093004;28;20465;-69
2022/06/29 07:18:54;;;;;;;8.50;7.70;;;;;;;;;;5092697;28;20443;-69
2022/06/29 07:21:21;;;;;;;11.00;9.90;;;;;;;;;;5092928;28;20549;-69
2022/06/29 07:23:50;;;;;;;17.00;9.80;;;;;;;;;;5092432;28;20468;-69
2022/06/29 07:26:17;;;;;;;10.50;9.40;;;;;;;;;;5092685;28;20454;-69
2022/06/29 07:28:44;;;;;;;9.70;8.83;;;;;;;;;;5092756;28;20831;-69
2022/06/29 07:31:11;;;;;;;11.67;8.33;;;;;;;;;;5092223;28;20479;-69
2022/06/29 07:33:38;;;;;;;14.90;7.20;;;;;;;;;;5093262;28;20486;-69
2022/06/29 07:36:05;;;;;;;10.30;8.40;;;;;;;;;;5092346;28;20443;-69
2022/06/29 07:38:32;;;;;;;10.50;9.40;;;;;;;;;;5092381;28;20451;-69
2022/06/29 07:41:01;;;;;;;15.17;10.37;;;;;;;;;;5093400;28;20807;-69
2022/06/29 07:43:28;;;;;;;10.97;9.87;;;;;;;;;;5093369;28;20446;-69
2022/06/29 07:45:57;;;;;;;14.23;9.93;;;;;;;;;;5093644;28;20454;-69
2022/06/29 07:48:24;;;;;;;13.07;6.70;;;;;;;;;;5093540;28;20499;-69
2022/06/29 07:50:51;;;;;;;12.57;7.17;;;;;;;;;;5093602;28;20991;-68
2022/06/29 07:53:18;;;;;;;13.70;5.90;;;;;;;;;;5092961;28;20503;-69
2022/06/29 07:55:45;;;;;;;13.00;6.27;;;;;;;;;;5093575;28;20443;-69
2022/06/29 07:58:14;;;;;;;5.77;5.13;;;;;;;;;;5093087;28;20452;-69
2022/06/29 08:00:42;;;;;;;11.57;6.03;;;;;;;;;;5090923;28;20462;-69
2022/06/29 08:03:09;;;;;;;5.37;4.87;;;;;;;;;;5091964;28;20950;-69
2022/06/29 08:05:36;;;;;;;9.77;5.43;;;;;;;;;;5091670;28;20453;-69
2022/06/29 08:08:04;;;;;;;5.23;4.60;;;;;;;;;;5091884;28;20477;-69
2022/06/29 08:10:32;;;;;;;8.13;4.77;;;;;;;;;;5091792;28;20454;-69
2022/06/29 08:12:59;;;;;;;6.90;4.70;;;;;;;;;;5091811;28;20901;-69
2022/06/29 08:15:28;;;;;;;12.07;4.40;;;;;;;;;;5091638;28;20560;-69
2022/06/29 08:17:55;;;;;;;6.70;4.10;;;;;;;;;;5091903;28;20457;-69
2022/06/29 08:20:22;;;;;;;7.83;3.83;;;;;;;;;;5091688;28;20948;-69
2022/06/29 08:22:49;;;;;;;7.80;4.30;;;;;;;;;;5091878;28;20467;-69
2022/06/29 08:25:16;;;;;;;9.43;4.50;;;;;;;;;;5091311;28;20458;-69
2022/06/29 08:27:44;;;;;;;6.80;4.43;;;;;;;;;;5091912;28;20458;-69
2022/06/29 08:30:13;;;;;;;4.23;3.83;;;;;;;;;;5088328;28;20454;-69
2022/06/29 08:32:41;;;;;;;7.97;4.40;;;;;;;;;;5070927;28;20503;-69
2022/06/29 08:35:09;;;;;;;9.47;3.67;;;;;;;;;;5071171;28;20462;-69
2022/06/29 08:37:37;;;;;;;5.53;3.70;;;;;;;;;;5071844;28;20793;-69
2022/06/29 08:40:04;;;;;;;7.20;3.83;;;;;;;;;;5071616;28;20506;-69
2022/06/29 08:42:32;;;;;;;5.20;4.03;;;;;;;;;;5071276;28;20471;-69
2022/06/29 08:44:59;;;;;;;4.87;4.07;;;;;;;;;;5071080;28;20803;-69
2022/06/29 08:47:26;;;;;;;5.80;3.93;;;;;;;;;;5071270;28;20463;-69
2022/06/29 08:49:55;;;;;;;3.90;3.23;;;;;;;;;;5071478;28;20447;-70
2022/06/29 08:52:22;;;;;;;4.90;3.80;;;;;;;;;;5071298;28;20487;-69
2022/06/29 08:54:52;;;;;;;11.10;4.47;;;;;;;;;;5070372;28;20460;-69
2022/06/29 08:57:19;;;;;;;7.33;4.50;;;;;;;;;;5071108;28;20964;-69
2022/06/29 08:59:46;;;;;;;4.97;4.30;;;;;;;;;;5070623;28;20475;-69
2022/06/29 09:02:14;;;;;;;9.83;4.63;;;;;;;;;;5070716;28;20471;-69
2022/06/29 09:04:41;;;;;;;9.60;4.40;;;;;;;;;;5070998;28;20472;-69
2022/06/29 09:07:10;;;;;;;6.87;4.80;;;;;;;;;;5071121;28;20463;-69
2022/06/29 09:09:52;;;;;;;9.23;5.20;;;;;;;;;;5072169;28;20816;-69
2022/06/29 09:12:19;;;;;;;5.67;4.63;;;;;;;;;;5074481;28;20492;-69
2022/06/29 09:14:46;;;;;;;8.43;4.70;;;;;;;;;;5074830;28;20447;-69
2022/06/29 09:17:13;;;;;;;7.10;4.37;;;;;;;;;;5074603;28;20459;-69
2022/06/29 09:19:44;;;;;;;6.80;4.40;;;;;;;;;;5074826;28;20456;-69
2022/06/29 09:22:13;;;;;;;7.77;4.37;;;;;;;;;;5074883;28;20498;-69
2022/06/29 09:24:40;;;;;;;8.20;5.20;;;;;;;;;;5074528;28;20850;-69
2022/06/29 09:27:08;;;;;;;7.77;5.20;;;;;;;;;;5074507;28;20462;-69
2022/06/29 09:29:36;;;;;;;8.63;5.23;;;;;;;;;;5074692;28;20451;-69
2022/06/29 09:32:10;;;;;;;9.00;4.20;;;;;;;;;;5074539;28;20467;-69
2022/06/29 09:34:39;;;;;;;6.50;5.80;;;;;;;;;;5074693;28;20530;-69
2022/06/29 09:37:06;;;;;;;6.27;4.60;;;;;;;;;;5074443;28;20540;-69
2022/06/29 09:39:36;;;;;;;7.27;5.80;;;;;;;;;;5074533;28;20451;-69
2022/06/29 09:42:03;;;;;;;6.40;5.87;;;;;;;;;;5074359;28;20503;-69
2022/06/29 09:44:30;;;;;;;7.60;6.17;;;;;;;;;;5074190;28;20451;-69
2022/06/29 09:46:58;;;;;;;6.60;5.67;;;;;;;;;;5074483;28;20960;-69
2022/06/29 09:49:26;;;;;;;8.60;5.97;;;;;;;;;;5074354;28;20960;-69
2022/06/29 09:51:55;;;;;;;9.83;6.40;;;;;;;;;;5074144;28;21047;-69
2022/06/29 09:54:24;;;;;;;7.30;5.87;;;;;;;;;;5073475;28;20493;-70
2022/06/29 09:56:53;;;;;;;10.93;7.93;;;;;;;;;;5074443;28;20975;-69
2022/06/29 10:02:34;;;;;;;12.00;6.80;;;;;;;;;;5073655;28;20936;-69
2022/06/29 10:05:00;;;;;;;8.30;6.40;;;;;;;;;;5075290;28;20447;-69
2022/06/29 10:07:28;;;;;;;7.67;6.87;;;;;;;;;;5075258;28;20455;-69
2022/06/29 10:09:55;;;;;;;7.43;6.73;;;;;;;;;;5075235;28;20466;-69
2022/06/29 10:15:15;;;;;;;7.63;6.80;;;;;;;;;;5074967;28;20519;-69
2022/06/29 10:17:49;;;;;;;7.60;6.77;;;;;;;;;;5075383;28;20944;-69
2022/06/29 10:20:25;;;;;;;7.97;6.57;;;;;;;;;;5074719;28;20447;-69
2022/06/29 10:22:52;;;;;;;11.70;8.37;;;;;;;;;;5075079;28;20458;-69
2022/06/29 10:25:27;;;;;;;8.50;7.70;;;;;;;;;;5074624;28;20981;-69
2022/06/29 10:28:13;;;;;;;7.73;6.60;;;;;;;;;;5075025;28;20508;-69
2022/06/29 10:30:40;;;;;;;8.37;6.30;;;;;;;;;;5074863;28;20452;-69
2022/06/29 10:33:26;;;;;;;6.40;5.80;;;;;;;;;;5075151;28;20487;-69
2022/06/29 10:36:01;;;;;;;6.87;6.27;;;;;;;;;;5074837;28;20448;-69
2022/06/29 10:38:31;;;;;;;7.77;6.60;;;;;;;;;;5074970;28;20455;-69
2022/06/29 10:41:09;;;;;;;7.53;6.23;;;;;;;;;;5074746;28;20562;-70
2022/06/29 10:43:38;;;;;;;8.37;6.90;;;;;;;;;;5074482;28;20505;-69
2022/06/29 10:46:05;;;;;;;6.97;6.37;;;;;;;;;;5074418;28;20451;-69
2022/06/29 10:48:33;;;;;;;7.60;6.90;;;;;;;;;;5078807;28;20447;-69
2022/06/29 10:51:00;;;;;;;8.27;7.20;;;;;;;;;;5094164;28;20470;-70
2022/06/29 10:53:27;;;;;;;8.80;7.10;;;;;;;;;;5072058;28;21059;-70
2022/06/29 10:55:55;;;;;;;9.80;7.60;;;;;;;;;;5078464;28;20447;-70
2022/06/29 10:58:23;;;;;;;9.87;8.83;;;;;;;;;;5072785;28;20887;-69
2022/06/29 11:00:53;;;;;;;13.00;8.70;;;;;;;;;;5072872;28;20479;-70
2022/06/29 11:03:22;;;;;;;10.07;8.57;;;;;;;;;;5072213;28;20530;-69
2022/06/29 11:15:39;;;;;;;8.67;7.57;;;;;;;;;;5073812;28;20616;-69
2022/06/29 11:16:56;;;;;;;10.10;7.00;;;;;;;;;;5073948;28;20861;-69
2022/06/29 11:19:28;;;;;;;11.50;7.70;;;;;;;;;;5073828;28;20854;-69
2022/06/29 11:22:11;;;;;;;7.27;6.23;;;;;;;;;;5073888;28;20524;-70
2022/06/29 11:24:52;;;;;;;7.77;7.07;;;;;;;;;;5073788;28;20456;-70
2022/06/29 11:27:37;;;;;;;7.87;7.20;;;;;;;;;;5073646;28;20451;-70
2022/06/29 11:30:07;;;;;;;10.07;6.13;;;;;;;;;;5073669;28;20451;-70
2022/06/29 11:32:37;;;;;;;8.90;7.97;;;;;;;;;;5073129;28;20529;-70
2022/06/29 11:35:05;;;;;;;8.70;7.17;;;;;;;;;;5073544;28;20455;-70
2022/06/29 11:37:32;;;;;;;6.63;5.67;;;;;;;;;;5073739;28;20444;-69
2022/06/29 11:39:59;;;;;;;7.80;6.70;;;;;;;;;;5073489;28;20466;-69
2022/06/29 11:45:16;;;;;;;6.30;5.47;;;;;;;;;;5073371;28;20566;-69
2022/06/29 11:47:52;;;;;;;7.50;6.00;;;;;;;;;;5073926;28;20451;-69
2022/06/29 11:50:19;;;;;;;7.57;6.53;;;;;;;;;;5073376;28;20458;-69
2022/06/29 11:52:47;;;;;;;10.13;7.70;;;;;;;;;;5072750;28;20467;-70
2022/06/29 11:55:14;;;;;;;7.53;6.67;;;;;;;;;;5073161;28;20444;-69
2022/06/29 11:57:41;;;;;;;12.33;7.40;;;;;;;;;;5073288;28;20471;-70
2022/06/29 12:00:11;;;;;;;11.00;7.27;;;;;;;;;;5073231;28;20458;-69
2022/06/29 12:02:38;;;;;;;8.27;6.00;;;;;;;;;;5073238;28;20525;-69
2022/06/29 12:05:08;;;;;;;8.50;7.40;;;;;;;;;;5072952;28;20448;-70
2022/06/29 12:07:35;;;;;;;8.93;5.83;;;;;;;;;;5073318;28;20821;-69
2022/06/29 12:10:02;;;;;;;7.00;5.50;;;;;;;;;;5073104;28;21045;-69
2022/06/29 12:12:30;;;;;;;7.57;5.30;;;;;;;;;;5073290;28;20482;-69
2022/06/29 12:14:57;;;;;;;5.30;4.80;;;;;;;;;;5073031;28;20579;-69
2022/06/29 12:17:24;;;;;;;5.83;4.47;;;;;;;;;;5072915;28;20467;-70
2022/06/29 12:19:51;;;;;;;5.90;5.30;;;;;;;;;;5072870;28;20455;-70
2022/06/29 12:22:20;;;;;;;11.03;6.10;;;;;;;;;;5072900;28;20847;-70
2022/06/29 12:24:47;;;;;;;6.67;5.67;;;;;;;;;;5072996;28;20861;-70
2022/06/29 12:27:14;;;;;;;6.13;5.60;;;;;;;;;;5072932;28;20451;-69
2022/06/29 12:29:41;;;;;;;6.10;5.50;;;;;;;;;;5073113;28;20955;-69
2022/06/29 12:32:08;;;;;;;6.23;5.03;;;;;;;;;;5072719;28;20472;-69
2022/06/29 12:34:35;;;;;;;8.37;6.07;;;;;;;;;;5072608;28;20557;-69
2022/06/29 12:37:03;;;;;;;9.73;5.93;;;;;;;;;;5073066;28;20444;-69
2022/06/29 12:39:32;;;;;;;6.07;5.43;;;;;;;;;;5072921;28;20456;-69
2022/06/29 12:41:59;;;;;;;9.37;6.53;;;;;;;;;;5072784;28;20480;-69
2022/06/29 12:44:26;;;;;;;7.13;5.37;;;;;;;;;;5074784;28;20466;-70
2022/06/29 12:46:53;;;;;;;9.23;6.13;;;;;;;;;;5076864;28;20447;-70
2022/06/29 12:49:21;;;;;;;10.00;5.80;;;;;;;;;;5076862;28;20505;-70
2022/06/29 12:51:48;;;;;;;10.53;5.90;;;;;;;;;;5076789;28;20467;-70
2022/06/29 12:54:17;;;;;;;6.60;5.63;;;;;;;;;;5076187;28;20483;-70
2022/06/29 12:56:45;;;;;;;5.90;5.37;;;;;;;;;;5076845;28;20451;-70
2022/06/29 12:59:12;;;;;;;11.17;6.10;;;;;;;;;;5076556;28;20479;-70
2022/06/29 13:01:40;;;;;;;5.57;5.07;;;;;;;;;;5076656;28;20476;-70
2022/06/29 13:04:07;;;;;;;8.87;6.67;;;;;;;;;;5076526;28;20870;-70
2022/06/29 13:06:34;;;;;;;24.83;6.63;;;;;;;;;;5076446;28;20447;-70
2022/06/29 13:09:01;;;;;;;6.60;5.47;;;;;;;;;;5076473;28;20452;-70
2022/06/29 13:11:28;;;;;;;7.80;7.00;;;;;;;;;;5076382;28;20467;-70
2022/06/29 13:13:56;;;;;;;6.57;5.97;;;;;;;;;;5076227;28;20487;-70
2022/06/29 13:16:24;;;;;;;7.90;5.93;;;;;;;;;;5076202;28;20452;-70
2022/06/29 13:18:51;;;;;;;10.17;6.03;;;;;;;;;;5076322;28;20463;-70
2022/06/29 13:21:18;;;;;;;8.40;7.33;;;;;;;;;;5076184;28;20467;-70
2022/06/29 13:23:45;;;;;;;7.00;6.30;;;;;;;;;;5075869;28;20466;-70
2022/06/29 13:26:12;;;;;;;11.47;7.47;;;;;;;;;;5076094;28;20936;-70
2022/06/29 13:28:43;;;;;;;8.23;6.70;;;;;;;;;;5076249;28;20455;-70
2022/06/29 13:31:11;;;;;;;9.00;7.70;;;;;;;;;;5075965;28;20503;-69
2022/06/29 13:33:39;;;;;;;7.63;6.93;;;;;;;;;;5075904;28;20479;-70
2022/06/29 13:36:06;;;;;;;7.20;6.50;;;;;;;;;;5075879;28;20459;-70
2022/06/29 13:38:33;;;;;;;9.70;7.07;;;;;;;;;;5076140;28;20456;-70
2022/06/29 13:41:00;;;;;;;6.07;5.40;;;;;;;;;;5075918;28;20475;-70
2022/06/29 13:43:27;;;;;;;7.93;5.90;;;;;;;;;;5075602;28;20451;-70
2022/06/29 13:45:54;;;;;;;9.10;6.90;;;;;;;;;;5075881;28;20452;-70
2022/06/29 13:48:23;;;;;;;9.63;6.80;;;;;;;;;;5075671;28;20517;-70
2022/06/29 13:50:50;;;;;;;9.53;5.80;;;;;;;;;;5075901;28;20475;-70
2022/06/29 13:53:17;;;;;;;11.90;6.77;;;;;;;;;;5075138;28;20451;-70
2022/06/29 13:55:45;;;;;;;6.80;6.17;;;;;;;;;;5074831;28;20455;-70
2022/06/29 13:58:12;;;;;;;8.47;5.43;;;;;;;;;;5075529;28;20459;-70
2022/06/29 14:00:40;;;;;;;6.57;5.97;;;;;;;;;;5075596;28;20458;-70
2022/06/29 14:03:07;;;;;;;7.97;6.23;;;;;;;;;;5075458;28;20452;-70
2022/06/29 14:05:36;;;;;;;10.00;7.87;;;;;;;;;;5075534;28;20794;-70
2022/06/29 14:08:03;;;;;;;9.20;8.23;;;;;;;;;;5075567;28;20551;-70
2022/06/29 14:10:31;;;;;;;8.77;7.03;;;;;;;;;;5075131;28;20474;-70
2022/06/29 14:12:58;;;;;;;9.50;6.77;;;;;;;;;;5075362;28;20487;-70
2022/06/29 14:15:25;;;;;;;7.03;6.43;;;;;;;;;;5075358;28;21027;-70
2022/06/29 14:17:52;;;;;;;9.17;8.00;;;;;;;;;;5075265;28;20456;-70
2022/06/29 14:20:19;;;;;;;9.60;7.73;;;;;;;;;;5075106;28;20454;-70
2022/06/29 14:22:48;;;;;;;8.77;7.40;;;;;;;;;;5075108;28;20480;-70
2022/06/29 14:25:15;;;;;;;10.90;7.40;;;;;;;;;;5074792;28;20463;-70
2022/06/29 14:27:42;;;;;;;8.37;7.57;;;;;;;;;;5075114;28;20814;-70
2022/06/29 14:30:10;;;;;;;10.47;8.00;;;;;;;;;;5075006;28;20448;-70
2022/06/29 14:32:41;;;;;;;10.20;6.87;;;;;;;;;;5074917;28;20981;-70
2022/06/29 14:35:08;;;;;;;8.80;8.00;;;;;;;;;;5074560;28;20484;-70
2022/06/29 14:37:35;;;;;;;9.57;7.63;;;;;;;;;;5074982;28;20455;-70
2022/06/29 14:40:04;;;;;;;9.60;7.60;;;;;;;;;;5074930;28;20459;-70
2022/06/29 14:42:34;;;;;;;10.87;8.73;;;;;;;;;;5074677;28;21010;-71
2022/06/29 14:45:01;;;;;;;12.30;8.07;;;;;;;;;;5074698;28;20534;-70
2022/06/29 14:47:28;;;;;;;8.47;7.13;;;;;;;;;;5074629;28;20809;-70
2022/06/29 14:49:55;;;;;;;12.13;7.83;;;;;;;;;;5074761;28;20455;-70
2022/06/29 14:52:23;;;;;;;8.47;7.30;;;;;;;;;;5074555;28;20472;-70
2022/06/29 14:54:51;;;;;;;11.23;8.20;;;;;;;;;;5073993;28;20487;-70